Marlboro, VT (05344)

6:17 PM EDT on May 24, 2017 (GMT -0400)
Lower Lake Raponda Rd | | Change Station
Active Advisory: Wind Advisory

Elev 1867 ft 42.87 °N, 72.82 °W | Updated 8 seconds ago

Partly Cloudy
Partly Cloudy
71.1 °F
Feels Like 77 °F
N
1.0
Wind Variable Wind from SSW

Today
High -- | Low -- °F
--% Chance of Precip.
Yesterday
High -- | Low -- °F
Precip. -- in
Pressure 29.84 in
Visibility 10.0 miles
Clouds Clear
Heat Index 77 °F
Dew Point 46 °F
Humidity 41%
Rainfall 0.00 in
Snow Depth Not available.
5:19 AM 8:16 PM
Waning Crescent, 1% visible
METAR KEEN 242156Z AUTO 00000KT 10SM CLR 22/09 A2979 RMK AO2 SLP105 T02170094
Pressure 29.84 in
Visibility 10.0 miles
Clouds Clear
Heat Index 77 °F
Dew Point 46 °F
Humidity 41%
Rainfall 0.00 in
Snow Depth Not available.
5:19 AM 8:16 PM
Waning Crescent, 1% visible
METAR KEEN 242156Z AUTO 00000KT 10SM CLR 22/09 A2979 RMK AO2 SLP105 T02170094

Get Your Daily Forecast Email!

Thanks for signing up!

Be on the lookout for a verification email in your inbox.

You'll start receiving severe weather alerts in your inbox..

×

10-Day Weather Forecast

Almanac

Astronomy

May. 24, 2017 Rise Set
Actual Time
Civil Twilight
Nautical Twilight
Astronomical Twilight
Moon
Length of Visible Light
Length of Day
Tomorrow will be .
, % of the Moon is Illuminated

Today's Extremes

State Highs State Lows

Community

WunderPhotos

Category 6

Welcome to Category 6. This is the collective home for Weather Underground's featured writeups by Dr. Jeff Masters (right), Bob Henson (left), Chris Burt, and other regular contributors.

Nearby

Air Quality

  Air Quality AQ Index Pollutant
Not available.

Snow Depth

Station Depth Elevation

Earthquake Activity

City Distance Mag. Time & Date
Minimum magnitude displayed is 2.5.

Coastal Water Temperatures

Place Temperature

Stations

Nearby Weather Stations

Station Location Temp. Windchill Dew Point Humidity Wind Precip. Elev Updated Type
                   

Watches & Warnings

Wind Advisory
Issued: 3:31 PM EDT May. 24, 2017 – National Weather Service

... Wind Advisory in effect from 10 am to 9 PM EDT Thursday...

The National Weather Service in Albany has issued a Wind
Advisory, which is in effect from 10 am to 9 PM EDT Thursday.

* Locations... northern Berkshires of western Massachusetts and
the southern Green Mountains of southern Vermont including
Bennington and western Windham counties.

* Winds... east to southeast at 15 to 25 mph with gusts up to 50
mph.

* Timing... gusty winds will develop late Thursday morning and
continue into the afternoon.

* Impacts... isolated to scattered downed trees and tree limbs,
downed wires and isolated power outages.

Precautionary/preparedness actions...

A Wind Advisory means that winds of 46 to 57 mph are expected.
Winds this strong are capable of Downing small tree limbs and
branches, possibly causing isolated power outages. Winds this
strong can make driving difficult... especially for high profile
vehicles. Use extra caution.